Time;durP1;ratioP1;P1;durP2;ratioP2;P2;SDS_P1;SDS_P2;PMS_P1;PMS_P2;Temp;Humidity;BMP_temperature;BMP_pressure;BME280_temperature;BME280_humidity;BME280_pressure;Samples;Min_cycle;Max_cycle;Signal;HPM_P1;HPM_P2
2023/05/02 11:00:25;;;;;;;1.60;1.10;;;;;;;16.42;100.00;99603.69;4982105;28;20266;-82
2023/05/02 11:02:54;;;;;;;1.33;1.20;;;;;;;16.55;100.00;99607.06;4991353;28;20222;-81
2023/05/02 11:05:24;;;;;;;1.13;0.80;;;;;;;16.62;93.88;99607.44;4993710;28;20203;-81
2023/05/02 11:08:30;;;;;;;0.80;0.80;;;;;;;16.77;93.90;99606.19;4985720;28;20203;-82
2023/05/02 11:11:39;;;;;;;0.90;0.90;;;;;;;16.76;91.43;99606.31;4984285;28;20203;-82
2023/05/02 11:14:11;;;;;;;1.27;0.70;;;;;;;16.75;93.49;99612.66;4980468;28;20204;-79
2023/05/02 11:17:08;;;;;;;2.67;1.20;;;;;;;16.99;88.16;99609.78;4966246;28;20367;-78
2023/05/02 11:20:29;;;;;;;1.17;0.70;;;;;;;16.78;85.59;99615.06;4971884;28;20231;-78
2023/05/02 11:23:23;;;;;;;1.00;0.77;;;;;;;16.53;94.06;99606.34;4933766;29;20221;-78
2023/05/02 11:25:56;;;;;;;1.03;0.93;;;;;;;16.49;98.85;99610.22;4931087;29;20343;-79
2023/05/02 11:28:41;;;;;;;1.87;0.90;;;;;;;16.77;99.60;99608.84;4931912;29;20193;-79
2023/05/02 11:31:31;;;;;;;3.70;1.00;;;;;;;17.01;99.92;99607.81;4914231;29;20197;-78
2023/05/02 11:34:04;;;;;;;1.70;1.13;;;;;;;17.07;89.69;99618.84;4933673;29;20200;-79
2023/05/02 11:36:33;;;;;;;0.90;0.80;;;;;;;17.89;88.69;99615.50;4900074;29;20201;-78
2023/05/02 11:39:02;;;;;;;2.27;0.97;;;;;;;18.30;87.28;99604.66;4932406;29;20723;-79
2023/05/02 11:41:40;;;;;;;1.10;0.80;;;;;;;17.77;90.49;99605.84;4957693;28;20200;-78
2023/05/02 11:44:08;;;;;;;1.63;0.80;;;;;;;17.93;92.88;99590.94;4967286;28;20224;-78
2023/05/02 11:46:38;;;;;;;1.07;0.87;;;;;;;17.72;88.67;99612.44;4974255;28;20207;-78
2023/05/02 11:49:08;;;;;;;1.27;0.90;;;;;;;17.38;97.84;99611.78;4974134;28;20204;-79
2023/05/02 11:51:39;;;;;;;1.33;0.93;;;;;;;17.61;92.63;99612.47;4968783;28;20204;-78
2023/05/02 11:54:09;;;;;;;1.87;0.93;;;;;;;17.57;93.57;99612.88;4973013;28;20208;-78
2023/05/02 11:56:37;;;;;;;1.87;0.80;;;;;;;17.55;94.33;99621.03;4971563;28;20273;-79
2023/05/02 11:59:07;;;;;;;0.80;0.80;;;;;;;17.23;96.04;99618.41;4967709;28;20196;-78
2023/05/02 12:01:35;;;;;;;0.83;0.80;;;;;;;16.43;100.00;99620.59;4971088;28;20203;-77
2023/05/02 12:04:06;;;;;;;1.00;0.90;;;;;;;16.27;100.00;99629.00;4970146;28;20215;-79
2023/05/02 12:06:36;;;;;;;2.30;1.30;;;;;;;15.88;100.00;99639.19;4971321;28;20666;-78
2023/05/02 12:09:08;;;;;;;3.23;1.30;;;;;;;15.34;100.00;99657.59;4970074;28;20204;-77
2023/05/02 12:11:37;;;;;;;3.30;1.70;;;;;;;14.60;100.00;99670.22;4966828;28;20195;-77
2023/05/02 12:14:06;;;;;;;2.03;1.50;;;;;;;14.17;100.00;99667.03;4967295;28;20211;-77
2023/05/02 12:16:35;;;;;;;2.53;1.50;;;;;;;14.08;100.00;99665.03;4934768;29;20291;-77
2023/05/02 12:19:05;;;;;;;2.57;1.80;;;;;;;14.22;100.00;99675.56;4937208;29;20231;-77
2023/05/02 12:21:35;;;;;;;2.80;1.77;;;;;;;14.39;100.00;99669.06;4931746;29;20212;-77
2023/05/02 12:24:04;;;;;;;2.80;1.90;;;;;;;14.91;100.00;99665.28;4933177;29;20393;-77
2023/05/02 12:26:33;;;;;;;2.30;1.80;;;;;;;15.46;100.00;99665.53;4932779;29;20204;-78
2023/05/02 12:29:01;;;;;;;3.20;2.00;;;;;;;15.76;100.00;99666.84;4937082;29;20255;-78
2023/05/02 12:31:30;;;;;;;2.97;1.53;;;;;;;16.58;100.00;99659.44;4936824;29;20200;-78
2023/05/02 12:34:00;;;;;;;1.93;1.50;;;;;;;17.02;100.00;99658.53;4936896;29;20208;-78
2023/05/02 12:36:28;;;;;;;1.87;1.67;;;;;;;17.69;100.00;99660.94;4886113;29;20288;-78
2023/05/02 12:39:00;;;;;;;1.93;1.40;;;;;;;17.87;100.00;99665.72;4919602;29;20200;-78
2023/05/02 12:41:33;;;;;;;2.63;1.50;;;;;;;17.56;100.00;99662.91;4957758;28;20230;-78
2023/05/02 12:44:02;;;;;;;1.57;1.40;;;;;;;17.32;100.00;99660.47;4977263;28;20211;-78
2023/05/02 12:46:31;;;;;;;2.37;1.33;;;;;;;17.48;100.00;99665.41;4970631;28;20266;-78
2023/05/02 12:49:04;;;;;;;3.70;1.27;;;;;;;17.19;100.00;99670.53;4971334;28;20192;-78
2023/05/02 12:51:33;;;;;;;1.90;1.40;;;;;;;16.91;100.00;99668.44;4974296;28;20267;-79
2023/05/02 12:54:05;;;;;;;3.43;1.77;;;;;;;16.99;100.00;99671.34;4976084;28;20199;-78
2023/05/02 12:56:39;;;;;;;1.40;1.30;;;;;;;16.16;100.00;99682.44;4969247;28;20200;-78
2023/05/02 12:59:08;;;;;;;1.60;1.30;;;;;;;16.16;100.00;99677.97;4971820;28;20202;-78
2023/05/02 13:01:36;;;;;;;1.70;1.27;;;;;;;16.38;100.00;99677.09;4971542;28;20219;-78
2023/05/02 13:04:05;;;;;;;2.60;1.10;;;;;;;16.58;100.00;99683.53;4971638;28;20223;-78
2023/05/02 13:06:36;;;;;;;1.50;1.30;;;;;;;16.48;100.00;99679.88;4973219;28;20200;-78
2023/05/02 13:09:06;;;;;;;3.03;1.67;;;;;;;16.49;100.00;99687.78;4970261;28;20203;-77
2023/05/02 13:11:34;;;;;;;1.57;1.47;;;;;;;16.54;100.00;99688.28;4972486;28;20196;-78
2023/05/02 13:14:04;;;;;;;2.13;1.50;;;;;;;16.45;100.00;99682.81;4932695;29;20201;-78
2023/05/02 13:16:35;;;;;;;2.10;1.40;;;;;;;16.02;100.00;99684.41;4933666;29;20304;-78
2023/05/02 13:19:04;;;;;;;3.40;1.90;;;;;;;15.98;100.00;99688.25;4905601;29;20241;-77
2023/05/02 13:21:34;;;;;;;1.90;1.40;;;;;;;16.19;100.00;99687.53;4933480;29;20244;-78
2023/05/02 13:24:02;;;;;;;2.00;1.40;;;;;;;16.27;100.00;99690.47;4927497;29;20272;-78
2023/05/02 13:26:33;;;;;;;3.00;1.70;;;;;;;16.07;100.00;99692.03;4897443;29;20269;-78
2023/05/02 13:29:03;;;;;;;1.47;1.30;;;;;;;15.82;100.00;99695.75;4894209;29;20250;-78
2023/05/02 13:31:32;;;;;;;2.43;1.43;;;;;;;16.05;100.00;99701.16;4903669;29;20215;-78
2023/05/02 13:34:00;;;;;;;2.57;1.40;;;;;;;16.11;100.00;99706.00;4935728;29;20197;-78
2023/05/02 13:36:28;;;;;;;1.63;1.30;;;;;;;16.05;100.00;99701.16;4933313;29;20204;-78
2023/05/02 13:38:57;;;;;;;1.60;1.30;;;;;;;16.05;100.00;99701.16;4932069;29;20201;-78
2023/05/02 13:41:25;;;;;;;3.93;1.70;;;;;;;16.05;100.00;99707.34;4935855;29;20197;-78
2023/05/02 13:43:57;;;;;;;1.50;1.20;;;;;;;16.21;100.00;99699.84;4939146;28;20212;-78
2023/05/02 13:46:25;;;;;;;2.53;1.60;;;;;;;16.33;100.00;99695.34;4927848;29;20213;-78
2023/05/02 13:48:54;;;;;;;1.70;1.50;;;;;;;16.06;100.00;99701.03;4933140;29;20248;-78
2023/05/02 13:51:23;;;;;;;2.63;1.80;;;;;;;15.97;100.00;99710.59;4930025;29;20260;-78
2023/05/02 13:53:51;;;;;;;1.90;1.60;;;;;;;15.83;99.47;99704.66;4934215;29;20193;-77
2023/05/02 13:56:20;;;;;;;1.67;1.57;;;;;;;16.03;99.12;99707.47;4931257;29;20201;-78
2023/05/02 13:58:49;;;;;;;1.60;1.50;;;;;;;15.74;99.58;99711.53;4928965;29;20248;-77
2023/05/02 14:01:18;;;;;;;3.37;1.67;;;;;;;15.65;99.71;99713.09;4913981;29;20205;-78
2023/05/02 14:03:47;;;;;;;2.37;2.00;;;;;;;15.63;100.00;99716.81;4922912;29;20188;-78
2023/05/02 14:06:15;;;;;;;2.30;1.90;;;;;;;15.63;100.00;99719.50;4952798;29;20199;-78
2023/05/02 14:08:44;;;;;;;2.90;2.30;;;;;;;15.59;100.00;99724.19;4950049;29;20218;-78
2023/05/02 14:11:12;;;;;;;4.93;2.07;;;;;;;15.53;100.00;99721.97;4947831;29;20208;-78
2023/05/02 14:13:40;;;;;;;3.77;2.10;;;;;;;15.39;100.00;99717.69;4955955;29;20247;-78
2023/05/02 14:16:08;;;;;;;3.87;2.03;;;;;;;15.47;100.00;99719.78;4948686;29;20300;-78
2023/05/02 14:18:45;;;;;;;1.90;1.80;;;;;;;15.25;100.00;99725.00;4949697;29;20227;-78
2023/05/02 14:21:13;;;;;;;2.10;1.90;;;;;;;15.01;100.00;99728.53;4953701;29;20204;-78
2023/05/02 14:23:42;;;;;;;3.73;2.00;;;;;;;15.06;100.00;99731.72;4952095;29;20204;-78
2023/05/02 14:26:10;;;;;;;5.10;2.47;;;;;;;15.06;100.00;99731.72;4952046;29;20224;-78
2023/05/02 14:28:38;;;;;;;2.20;1.77;;;;;;;15.45;100.00;99724.41;4956289;29;20193;-78
2023/05/02 14:31:07;;;;;;;2.07;1.70;;;;;;;15.68;100.00;99734.22;4956100;29;20290;-78
2023/05/02 14:33:36;;;;;;;5.10;2.10;;;;;;;16.22;100.00;99733.63;4956056;29;20200;-78
2023/05/02 14:36:08;;;;;;;2.13;1.87;;;;;;;16.14;100.00;99735.19;4906605;29;20710;-78
2023/05/02 14:38:36;;;;;;;2.20;1.83;;;;;;;15.64;100.00;99742.59;4951850;28;20200;-78
2023/05/02 14:41:05;;;;;;;2.83;2.07;;;;;;;15.51;100.00;99745.28;4949248;29;20204;-77
2023/05/02 14:43:35;;;;;;;4.07;2.00;;;;;;;15.50;100.00;99754.25;4947361;29;20271;-78
2023/05/02 14:46:03;;;;;;;2.40;2.03;;;;;;;15.51;100.00;99758.63;4946464;29;20224;-77
2023/05/02 14:48:31;;;;;;;2.13;1.93;;;;;;;15.74;100.00;99756.94;4955924;29;20196;-78
2023/05/02 14:51:08;;;;;;;2.00;1.90;;;;;;;15.70;100.00;99758.13;4951763;29;20200;-78
2023/05/02 14:53:38;;;;;;;2.90;2.23;;;;;;;15.68;100.00;99752.06;4955769;29;20196;-78
2023/05/02 14:56:15;;;;;;;2.20;1.90;;;;;;;15.45;99.26;99764.44;4954474;29;20656;-78
2023/05/02 14:58:45;;;;;;;2.23;2.03;;;;;;;15.21;99.52;99769.75;4948931;29;20275;-78
2023/05/02 15:01:17;;;;;;;3.93;2.53;;;;;;;15.04;100.00;99770.13;4971689;28;20235;-78
2023/05/02 15:03:46;;;;;;;4.50;2.97;;;;;;;15.10;100.00;99773.22;4985185;28;20281;-77
2023/05/02 15:06:34;;;;;;;5.73;3.20;;;;;;;14.77;100.00;99771.19;4990316;28;20287;-78
2023/05/02 15:09:04;;;;;;;3.93;3.33;;;;;;;14.64;100.00;99773.00;4986638;28;20211;-77
2023/05/02 15:11:32;;;;;;;6.33;3.63;;;;;;;14.77;100.00;99778.34;4991519;28;20274;-78
2023/05/02 15:14:01;;;;;;;5.93;3.67;;;;;;;14.74;100.00;99771.38;4989445;28;20701;-78
2023/05/02 15:16:29;;;;;;;4.53;3.60;;;;;;;14.67;100.00;99771.91;4990022;28;20203;-77
2023/05/02 15:18:58;;;;;;;5.97;3.60;;;;;;;14.77;100.00;99787.19;4991093;28;20199;-78
2023/05/02 15:21:26;;;;;;;3.87;3.20;;;;;;;14.83;100.00;99783.22;4993892;28;20198;-77
2023/05/02 15:23:56;;;;;;;4.43;3.50;;;;;;;14.97;100.00;99787.56;4988025;28;20258;-77
2023/05/02 15:26:27;;;;;;;4.40;3.50;;;;;;;15.03;100.00;99789.78;4992582;28;20219;-77
2023/05/02 15:28:55;;;;;;;4.40;2.87;;;;;;;14.88;100.00;99789.06;4989701;28;20203;-77
2023/05/02 15:31:24;;;;;;;3.63;2.77;;;;;;;14.79;100.00;99790.59;4993368;28;20195;-77
2023/05/02 15:33:52;;;;;;;4.47;2.90;;;;;;;14.50;100.00;99791.78;4989082;28;20230;-77
2023/05/02 15:36:20;;;;;;;4.23;2.73;;;;;;;14.58;100.00;99795.63;4995739;28;20242;-77
2023/05/02 15:38:49;;;;;;;5.20;3.10;;;;;;;14.46;100.00;99799.13;4984495;28;20199;-78
2023/05/02 15:41:19;;;;;;;3.07;2.77;;;;;;;14.35;100.00;99799.00;4986143;28;20207;-78
2023/05/02 15:43:47;;;;;;;3.20;2.67;;;;;;;14.47;100.00;99805.31;4986960;28;20216;-77
2023/05/02 15:46:15;;;;;;;3.90;2.73;;;;;;;14.63;100.00;99802.44;4987987;28;20227;-78
2023/05/02 15:48:44;;;;;;;3.10;2.33;;;;;;;14.77;100.00;99800.50;4990963;28;20234;-78
2023/05/02 15:51:12;;;;;;;3.33;2.60;;;;;;;14.66;100.00;99797.72;4939158;28;20199;-78
2023/05/02 15:53:43;;;;;;;5.00;2.60;;;;;;;14.48;100.00;99801.72;4987398;28;20229;-77
2023/05/02 15:56:12;;;;;;;3.87;2.73;;;;;;;14.74;100.00;99808.72;4991278;28;20662;-78
2023/05/02 15:58:43;;;;;;;4.90;3.13;;;;;;;14.43;100.00;99801.13;4988201;28;20203;-78
2023/05/02 16:01:11;;;;;;;3.60;3.30;;;;;;;14.31;100.00;99803.69;4983801;28;20235;-77
2023/05/02 16:03:40;;;;;;;5.40;3.63;;;;;;;14.36;100.00;99813.16;4990616;28;20254;-78
2023/05/02 16:06:08;;;;;;;5.80;3.83;;;;;;;14.30;100.00;99817.13;4993239;28;20253;-78
2023/05/02 16:08:37;;;;;;;3.90;3.30;;;;;;;14.26;100.00;99821.81;4990526;28;20198;-78
2023/05/02 16:11:05;;;;;;;5.07;3.37;;;;;;;14.52;100.00;99822.72;4987504;28;20215;-78
2023/05/02 16:13:33;;;;;;;4.90;3.40;;;;;;;14.15;100.00;99820.84;4990124;28;20198;-78
2023/05/02 16:16:03;;;;;;;4.60;3.20;;;;;;;14.21;100.00;99821.28;4994053;28;20198;-78
2023/05/02 16:18:33;;;;;;;5.57;3.23;;;;;;;14.04;100.00;99832.22;4988108;28;20203;-77
2023/05/02 16:21:01;;;;;;;3.63;2.80;;;;;;;14.27;100.00;99831.50;4991055;28;20230;-78
2023/05/02 16:23:29;;;;;;;3.70;3.10;;;;;;;14.29;100.00;99829.59;4944665;28;20199;-78
2023/05/02 16:25:58;;;;;;;4.50;3.50;;;;;;;13.93;100.00;99821.44;4909250;29;20269;-78
2023/05/02 16:28:33;;;;;;;3.30;2.73;;;;;;;14.07;100.00;99828.50;4914725;29;20211;-78
2023/05/02 16:31:09;;;;;;;4.97;3.53;;;;;;;13.84;100.00;99828.22;4912432;29;20198;-77
2023/05/02 16:33:39;;;;;;;4.83;3.80;;;;;;;14.09;100.00;99839.88;4911260;29;20259;-77
2023/05/02 16:36:08;;;;;;;3.97;3.27;;;;;;;14.29;100.00;99834.09;4910714;29;20205;-78
2023/05/02 16:38:36;;;;;;;3.60;3.17;;;;;;;14.15;100.00;99837.66;4880994;29;20269;-77
2023/05/02 16:41:07;;;;;;;5.63;3.60;;;;;;;14.28;100.00;99832.34;4909336;29;20210;-78
2023/05/02 16:43:36;;;;;;;5.77;3.40;;;;;;;14.19;100.00;99833.84;4935837;28;20192;-78
2023/05/02 16:46:07;;;;;;;4.40;3.17;;;;;;;14.35;100.00;99827.47;4987174;28;20226;-78
2023/05/02 16:48:38;;;;;;;5.57;3.27;;;;;;;14.10;100.00;99842.47;4991914;28;20227;-78
2023/05/02 16:51:06;;;;;;;6.27;3.97;;;;;;;14.09;98.85;99846.09;4988234;28;20258;-78
2023/05/02 16:53:35;;;;;;;5.07;3.27;;;;;;;14.31;99.74;99843.66;4986556;28;20234;-77
2023/05/02 16:56:03;;;;;;;4.53;3.40;;;;;;;14.06;95.95;99838.28;4985548;28;20199;-78
2023/05/02 16:58:31;;;;;;;5.37;3.33;;;;;;;13.98;97.57;99846.78;4931237;29;20197;-77
2023/05/02 17:01:00;;;;;;;6.57;3.53;;;;;;;13.69;97.03;99847.88;4925653;29;20284;-78
2023/05/02 17:03:30;;;;;;;4.27;3.40;;;;;;;13.85;97.45;99848.56;4931898;29;20237;-77
2023/05/02 17:06:00;;;;;;;5.30;3.40;;;;;;;13.59;96.44;99852.09;4929531;29;20273;-77
2023/05/02 17:08:29;;;;;;;4.60;3.73;;;;;;;13.58;95.44;99850.38;4929711;29;20255;-77
2023/05/02 17:10:57;;;;;;;6.50;4.03;;;;;;;13.44;96.00;99868.13;4930327;29;20214;-77
2023/05/02 17:13:26;;;;;;;6.67;4.73;;;;;;;13.22;97.53;99864.25;4925593;29;20201;-77
2023/05/02 17:15:54;;;;;;;5.70;4.00;;;;;;;13.09;98.07;99870.31;4943358;28;20203;-78
2023/05/02 17:18:24;;;;;;;5.67;4.13;;;;;;;13.05;98.63;99858.19;4993962;28;20229;-77
2023/05/02 17:20:54;;;;;;;6.43;4.17;;;;;;;13.01;100.00;99861.09;4989658;28;20285;-77
2023/05/02 17:23:23;;;;;;;5.63;3.93;;;;;;;12.78;100.00;99868.72;4991192;28;20254;-78
2023/05/02 17:25:51;;;;;;;5.50;4.03;;;;;;;12.74;100.00;99872.53;4991971;28;20224;-77
2023/05/02 17:28:20;;;;;;;5.80;3.97;;;;;;;12.94;100.00;99876.63;4993369;28;20250;-77
2023/05/02 17:30:53;;;;;;;8.13;4.87;;;;;;;12.96;100.00;99881.84;4989252;28;20206;-78
2023/05/02 17:33:21;;;;;;;7.80;4.30;;;;;;;12.73;100.00;99877.91;4991282;28;20669;-77
2023/05/02 17:35:50;;;;;;;6.07;4.50;;;;;;;12.61;100.00;99884.84;4990725;28;20199;-78
2023/05/02 17:38:20;;;;;;;5.93;4.07;;;;;;;12.55;100.00;99886.09;4988880;28;20246;-77
2023/05/02 17:40:48;;;;;;;6.60;4.07;;;;;;;12.74;100.00;99883.16;4987003;28;20207;-77
2023/05/02 17:43:17;;;;;;;8.03;4.63;;;;;;;12.79;100.00;99889.03;4988785;28;20525;-77
2023/05/02 17:45:45;;;;;;;7.60;4.27;;;;;;;12.81;100.00;99892.44;4989400;28;20199;-77
2023/05/02 17:48:13;;;;;;;8.10;4.40;;;;;;;12.59;100.00;99895.56;4991885;28;20215;-77
2023/05/02 17:50:42;;;;;;;9.13;4.80;;;;;;;12.61;100.00;99893.66;4989389;28;20230;-77
2023/05/02 17:53:11;;;;;;;6.07;4.23;;;;;;;12.69;100.00;99890.53;4986946;28;20285;-77
2023/05/02 17:55:41;;;;;;;6.73;4.27;;;;;;;12.69;97.65;99897.66;4987488;28;20199;-77
2023/05/02 17:58:09;;;;;;;10.83;4.57;;;;;;;12.85;95.33;99899.31;4990427;28;20195;-77
2023/05/02 18:00:38;;;;;;;6.37;4.03;;;;;;;12.57;95.50;99908.09;4990119;28;20235;-78
2023/05/02 18:03:06;;;;;;;6.03;4.03;;;;;;;12.67;96.66;99902.22;4987226;28;20307;-77
2023/05/02 18:05:38;;;;;;;6.40;3.73;;;;;;;12.74;95.08;99912.41;4991223;28;20211;-77
2023/05/02 18:08:07;;;;;;;6.40;3.83;;;;;;;12.32;95.97;99913.16;4988090;28;20685;-77
2023/05/02 18:10:41;;;;;;;7.17;3.50;;;;;;;12.41;94.60;99917.06;4986262;28;20207;-77
2023/05/02 18:13:10;;;;;;;8.33;3.73;;;;;;;12.10;95.46;99920.69;4991294;28;20195;-77
2023/05/02 18:15:38;;;;;;;4.77;3.47;;;;;;;11.89;97.32;99925.44;4985599;28;20199;-77
2023/05/02 18:18:06;;;;;;;6.87;3.73;;;;;;;11.85;98.32;99923.88;4985149;28;20195;-78
2023/05/02 18:20:39;;;;;;;6.60;3.80;;;;;;;11.87;99.32;99925.53;4988794;28;20225;-77
2023/05/02 18:23:07;;;;;;;10.10;3.57;;;;;;;11.75;100.00;99929.66;4992277;28;20241;-78
2023/05/02 18:25:36;;;;;;;8.43;4.07;;;;;;;11.57;100.00;99936.00;4989317;28;20199;-77
2023/05/02 18:28:06;;;;;;;7.10;3.50;;;;;;;11.58;100.00;99940.41;4988764;28;20219;-77
2023/05/02 18:30:37;;;;;;;6.90;3.90;;;;;;;11.55;100.00;99940.53;4987643;28;20215;-77
2023/05/02 18:33:05;;;;;;;5.67;3.30;;;;;;;11.45;100.00;99947.28;4990953;28;20210;-77
2023/05/02 18:35:34;;;;;;;7.03;3.57;;;;;;;11.22;100.00;99943.25;4988755;28;20205;-77
2023/05/02 18:38:05;;;;;;;7.43;4.40;;;;;;;11.29;100.00;99946.41;4982407;28;20203;-77
2023/05/02 18:40:33;;;;;;;7.43;4.33;;;;;;;11.23;100.00;99944.13;4990419;28;20253;-77
2023/05/02 18:43:02;;;;;;;10.20;4.20;;;;;;;11.36;100.00;99953.09;4988244;28;20214;-77
2023/05/02 18:45:32;;;;;;;5.83;3.70;;;;;;;11.29;100.00;99957.03;4987741;28;20195;-77
2023/05/02 18:48:00;;;;;;;7.33;3.87;;;;;;;11.43;100.00;99958.00;4989111;28;20227;-78
2023/05/02 18:50:29;;;;;;;7.03;3.97;;;;;;;11.02;100.00;99952.28;4991125;28;20195;-77
2023/05/02 18:52:57;;;;;;;5.33;3.67;;;;;;;11.16;100.00;99959.47;4983039;28;20210;-77
2023/05/02 18:55:25;;;;;;;8.37;3.73;;;;;;;11.26;100.00;99963.34;4985200;28;20558;-77
2023/05/02 18:57:54;;;;;;;6.33;4.10;;;;;;;11.20;100.00;99976.97;4983246;28;20258;-78
2023/05/02 19:00:24;;;;;;;8.50;3.90;;;;;;;10.95;100.00;99971.25;4987596;28;20223;-77
2023/05/02 19:02:54;;;;;;;11.23;4.50;;;;;;;10.95;100.00;99973.88;4983639;28;20206;-77
2023/05/02 19:05:23;;;;;;;5.43;4.00;;;;;;;10.84;100.00;99972.66;4991374;28;20282;-77
2023/05/02 19:07:51;;;;;;;6.57;4.40;;;;;;;10.47;100.00;99978.97;4984759;28;20254;-77
2023/05/02 19:10:19;;;;;;;7.10;3.60;;;;;;;10.52;100.00;99974.31;4986185;28;20203;-77
2023/05/02 19:12:47;;;;;;;7.50;4.10;;;;;;;10.46;100.00;99982.56;4994289;28;20207;-77
2023/05/02 19:15:16;;;;;;;9.40;4.37;;;;;;;10.47;100.00;99981.63;4990195;28;20210;-77
2023/05/02 19:17:44;;;;;;;13.10;4.37;;;;;;;10.20;100.00;99991.75;4987207;28;20192;-77
2023/05/02 19:20:17;;;;;;;7.83;4.10;;;;;;;10.29;100.00;99996.63;4991335;28;20218;-77
2023/05/02 19:22:48;;;;;;;8.87;4.27;;;;;;;10.08;100.00;99999.44;4986334;28;20203;-77
2023/05/02 19:25:16;;;;;;;9.63;4.67;;;;;;;10.12;100.00;100004.50;4988248;28;20195;-77
2023/05/02 19:27:46;;;;;;;8.70;4.40;;;;;;;10.07;100.00;100005.69;4989796;28;20223;-77
2023/05/02 19:30:14;;;;;;;8.53;4.27;;;;;;;10.17;100.00;100007.81;4988744;28;20199;-77
2023/05/02 19:32:43;;;;;;;10.83;4.60;;;;;;;10.21;100.00;100009.34;4987487;28;20206;-77
2023/05/02 19:35:11;;;;;;;6.97;4.57;;;;;;;10.19;100.00;100005.94;4990119;28;20234;-77
2023/05/02 19:37:42;;;;;;;14.13;4.83;;;;;;;10.30;100.00;100014.22;4986410;28;20199;-77
2023/05/02 19:40:11;;;;;;;7.27;4.93;;;;;;;10.08;100.00;100007.38;4982035;28;20269;-77
2023/05/02 19:42:39;;;;;;;10.20;4.87;;;;;;;10.15;100.00;100014.13;4987453;28;20233;-78
2023/05/02 19:45:12;;;;;;;7.30;5.00;;;;;;;10.19;100.00;100023.59;4993566;28;20199;-77
2023/05/02 19:47:42;;;;;;;9.63;4.83;;;;;;;10.02;100.00;100019.13;4983833;28;20286;-77
2023/05/02 19:50:11;;;;;;;10.60;4.97;;;;;;;10.04;100.00;100022.56;4991242;28;20195;-77
2023/05/02 19:52:43;;;;;;;8.73;5.10;;;;;;;10.09;100.00;100025.84;4993668;28;20191;-77
2023/05/02 19:55:11;;;;;;;11.03;5.50;;;;;;;9.99;100.00;100025.41;4987022;28;20347;-77
2023/05/02 19:57:43;;;;;;;7.67;5.17;;;;;;;10.06;100.00;100025.13;4984397;28;20191;-77
2023/05/02 20:00:13;;;;;;;7.97;4.83;;;;;;;9.87;100.00;100031.31;4986023;28;20222;-77
2023/05/02 20:02:43;;;;;;;9.23;4.80;;;;;;;9.88;100.00;100029.50;4990644;28;20195;-78
2023/05/02 20:05:11;;;;;;;8.37;4.97;;;;;;;9.89;100.00;100037.38;4985431;28;20225;-77
2023/05/02 20:07:43;;;;;;;11.20;5.97;;;;;;;9.88;100.00;100033.00;4987909;28;20273;-77
2023/05/02 20:10:11;;;;;;;8.97;4.87;;;;;;;9.79;100.00;100037.88;4983130;28;20227;-77
2023/05/02 20:12:43;;;;;;;8.80;5.33;;;;;;;9.79;100.00;100036.09;4985885;28;20198;-77
2023/05/02 20:15:12;;;;;;;11.27;5.33;;;;;;;9.51;100.00;100047.09;4957686;28;20199;-77
2023/05/02 20:17:40;;;;;;;9.73;5.10;;;;;;;9.51;100.00;100039.16;4990401;28;20203;-77
2023/05/02 20:20:10;;;;;;;10.27;5.70;;;;;;;9.61;100.00;100042.22;4987129;28;20289;-77
2023/05/02 20:22:39;;;;;;;10.20;5.30;;;;;;;9.66;100.00;100042.88;4984434;28;20199;-77
2023/05/02 20:25:11;;;;;;;9.33;5.27;;;;;;;9.43;100.00;100041.28;4991709;28;20191;-77
2023/05/02 20:27:40;;;;;;;10.57;5.17;;;;;;;9.23;100.00;100052.75;4989653;28;20245;-77
2023/05/02 20:30:09;;;;;;;10.03;5.23;;;;;;;9.12;100.00;100058.50;4985298;28;20654;-77
2023/05/02 20:32:38;;;;;;;9.90;5.70;;;;;;;9.21;100.00;100054.59;4952246;29;20227;-77
2023/05/02 20:35:07;;;;;;;11.27;5.90;;;;;;;9.14;100.00;100055.78;4949873;28;20197;-77
2023/05/02 20:37:35;;;;;;;11.97;6.10;;;;;;;9.03;100.00;100061.53;4951068;28;20204;-76
2023/05/02 20:40:08;;;;;;;11.53;5.87;;;;;;;9.05;100.00;100067.59;4891283;29;20605;-77
2023/05/02 20:42:41;;;;;;;10.20;5.40;;;;;;;9.13;100.00;100076.06;4897046;29;20387;-77
2023/05/02 20:45:12;;;;;;;8.73;5.30;;;;;;;9.16;100.00;100081.22;4893696;29;20202;-76
2023/05/02 20:47:42;;;;;;;10.53;5.37;;;;;;;9.13;100.00;100080.50;4849784;29;20194;-77
2023/05/02 20:50:11;;;;;;;8.77;5.63;;;;;;;8.99;100.00;100078.47;4895595;29;20285;-77
2023/05/02 20:52:39;;;;;;;9.23;5.53;;;;;;;8.95;100.00;100068.06;4899511;29;20221;-77
2023/05/02 20:55:08;;;;;;;12.33;5.53;;;;;;;8.96;100.00;100075.06;4887703;29;20213;-77
2023/05/02 20:57:39;;;;;;;9.93;5.63;;;;;;;9.09;100.00;100071.84;4917911;28;20203;-77
2023/05/02 21:00:10;;;;;;;12.57;5.60;;;;;;;8.99;100.00;100080.25;4990475;28;20234;-77
2023/05/02 21:02:38;;;;;;;9.97;5.67;;;;;;;8.76;100.00;100083.84;4990204;28;20195;-77
2023/05/02 21:05:06;;;;;;;8.27;5.70;;;;;;;8.90;100.00;100081.50;4987270;28;20199;-77
2023/05/02 21:07:35;;;;;;;8.20;4.73;;;;;;;8.69;100.00;100096.47;4989404;28;20348;-77
2023/05/02 21:10:08;;;;;;;10.93;5.63;;;;;;;8.68;100.00;100092.06;4991981;28;20215;-77
2023/05/02 21:12:38;;;;;;;9.07;5.17;;;;;;;8.53;100.00;100092.72;4988976;28;20206;-77
2023/05/02 21:15:08;;;;;;;10.57;5.20;;;;;;;8.74;100.00;100089.19;4991280;28;20191;-77
2023/05/02 21:17:39;;;;;;;11.87;5.33;;;;;;;8.71;100.00;100088.47;4992142;28;20193;-77
2023/05/02 21:20:09;;;;;;;10.90;5.90;;;;;;;8.86;100.00;100075.47;4990895;28;20219;-77
2023/05/02 21:22:38;;;;;;;10.53;5.50;;;;;;;8.95;100.00;100076.84;4993194;28;20191;-77
2023/05/02 21:25:06;;;;;;;10.93;5.40;;;;;;;8.99;100.00;100075.81;4980486;28;20262;-77
2023/05/02 21:27:35;;;;;;;10.00;5.20;;;;;;;9.04;100.00;100087.03;4996003;28;20195;-77
2023/05/02 21:30:07;;;;;;;9.77;5.03;;;;;;;9.03;100.00;100082.69;4988379;28;20375;-77
2023/05/02 21:32:35;;;;;;;8.30;5.23;;;;;;;9.09;100.00;100087.72;4993144;28;20199;-77
2023/05/02 21:35:04;;;;;;;9.53;5.57;;;;;;;8.98;100.00;100091.75;4989610;28;20201;-77
2023/05/02 21:37:33;;;;;;;10.27;5.53;;;;;;;9.11;100.00;100090.28;4985057;28;20254;-77
2023/05/02 21:40:02;;;;;;;11.97;7.10;;;;;;;8.78;100.00;100101.38;4982043;28;20203;-77
2023/05/02 21:42:31;;;;;;;14.33;5.40;;;;;;;8.83;100.00;100096.72;4986865;28;20277;-77
2023/05/02 21:45:00;;;;;;;11.63;5.83;;;;;;;8.81;100.00;100108.28;4995812;28;20199;-77
2023/05/02 21:47:30;;;;;;;6.90;4.80;;;;;;;8.76;100.00;100116.41;4995379;28;20237;-77
2023/05/02 21:49:58;;;;;;;10.03;5.43;;;;;;;8.67;100.00;100098.28;4987189;28;20222;-77
2023/05/02 21:52:27;;;;;;;10.63;5.37;;;;;;;8.71;100.00;100096.41;4980889;28;20282;-77
2023/05/02 21:54:55;;;;;;;9.33;5.33;;;;;;;8.73;100.00;100091.91;4991323;28;20196;-77
2023/05/02 21:57:24;;;;;;;7.43;5.30;;;;;;;8.54;100.00;100097.94;4992491;28;20254;-77
2023/05/02 21:59:52;;;;;;;11.23;6.13;;;;;;;8.50;100.00;100101.63;4989110;28;20223;-77
2023/05/02 22:02:22;;;;;;;9.27;5.57;;;;;;;8.51;100.00;100102.50;4987774;28;20207;-77
2023/05/02 22:04:53;;;;;;;13.47;5.53;;;;;;;8.55;100.00;100099.66;4989874;28;20192;-77
2023/05/02 22:07:21;;;;;;;9.50;5.50;;;;;;;8.58;100.00;100094.22;4983270;28;20246;-77
2023/05/02 22:09:49;;;;;;;10.07;5.67;;;;;;;8.60;100.00;100110.03;4986146;28;20226;-77
2023/05/02 22:12:18;;;;;;;7.43;5.20;;;;;;;8.45;100.00;100100.94;4990935;28;20191;-77
2023/05/02 22:14:47;;;;;;;8.53;5.33;;;;;;;8.42;100.00;100102.84;4988647;28;20203;-77
2023/05/02 22:17:17;;;;;;;8.40;5.30;;;;;;;8.17;100.00;100100.28;4988522;28;20204;-77
2023/05/02 22:19:48;;;;;;;8.03;5.50;;;;;;;7.85;100.00;100098.88;4989183;28;20191;-77
2023/05/02 22:22:18;;;;;;;11.93;5.57;;;;;;;7.85;100.00;100102.38;4987586;28;20203;-77
2023/05/02 22:24:47;;;;;;;12.87;5.60;;;;;;;7.88;100.00;100101.41;4986143;28;20198;-77
2023/05/02 22:27:15;;;;;;;11.77;5.77;;;;;;;7.87;100.00;100110.22;4992051;28;20206;-77
2023/05/02 22:29:43;;;;;;;11.07;6.27;;;;;;;7.56;100.00;100102.59;4983437;28;20238;-76
2023/05/02 22:32:11;;;;;;;10.33;5.63;;;;;;;7.47;100.00;100102.00;4986261;28;20199;-77
2023/05/02 22:34:40;;;;;;;13.87;6.27;;;;;;;7.59;100.00;100110.38;4987823;28;20203;-77
2023/05/02 22:37:08;;;;;;;11.27;6.30;;;;;;;7.68;100.00;100104.78;4986123;28;20221;-77